This is the latest recevied weather packets stored in our database for station/object KG5MMT-12. If no packets are shown the sender has not sent any weather packets the latest 10 day(s).
| Time | Temp. | Humidity | Pressure | Rain* | Wind** | Luminosity | Snow |
|---|---|---|---|---|---|---|---|
| 1787928857 | 17.22° C | 70% | 0 hPa | 0 mm | - | - | - |
| 1787928557 | 16.11° C | 75% | 0 hPa | 0 mm | - | - | - |
| 1787928258 | 15.56° C | 83% | 0 hPa | 0 mm | - | - | - |
| 1787927958 | 15° C | 86% | 0 hPa | 0 mm | - | - | - |
| 1787927658 | 14.44° C | 87% | 0 hPa | 0 mm | - | - | - |
| 1787927358 | 13.89° C | 92% | 0 hPa | 0 mm | - | - | - |
| 1787927058 | 13.33° C | 90% | 0 hPa | 0 mm | - | - | - |
| 1787926758 | 13.33° C | 91% | 0 hPa | 0 mm | - | - | - |
| 1787926458 | 12.78° C | 91% | 0 hPa | 0 mm | - | - | - |
| 1787926158 | 12.78° C | 92% | 0 hPa | 0 mm | - | - | - |
| 1787925858 | 12.78° C | 93% | 0 hPa | 0 mm | - | - | - |
| 1787925558 | 12.22° C | 93% | 0 hPa | 0 mm | - | - | - |
| 1787925258 | 12.22° C | 92% | 0 hPa | 0 mm | - | - | - |
| 1787924958 | 12.22° C | 93% | 0 hPa | 0 mm | - | - | - |
| 1787924658 | 12.22° C | 93% | 0 hPa | 0 mm | - | - | - |
| 1787924358 | 12.22° C | 93% | 0 hPa | 0 mm | - | - | - |
| 1787924058 | 11.67° C | 93% | 0 hPa | 0 mm | - | - | - |
| 1787923458 | 11.67° C | 93% | 0 hPa | 0 mm | - | - | - |
| 1787923159 | 11.67° C | 93% | 0 hPa | 0 mm | - | - | - |
| 1787922858 | 11.67° C | 93% | 0 hPa | 0 mm | - | - | - |
| 1787922558 | 11.67° C | 94% | 0 hPa | 0 mm | - | - | - |
| 1787922258 | 11.67° C | 93% | 0 hPa | 0 mm | - | - | - |
| 1787921958 | 11.67° C | 94% | 0 hPa | 0 mm | - | - | - |
| 1787921658 | 11.67° C | 94% | 0 hPa | 0 mm | - | - | - |
| 1787921368 | 11.67° C | 94% | 0 hPa | 0 mm | - | - | - |
* Rain latest hour (hover to see other rain measurements)
** Current wind speed in m/s (hover to see current wind gust speed)